createdAt,value
2022-10-19T00:01:11.143Z,101727.66
2022-10-19T00:06:18.413Z,101726.16
2022-10-19T00:11:18.716Z,101720.94
2022-10-19T00:16:21.118Z,101659.06
2022-10-19T00:21:22.627Z,101678.78
2022-10-19T00:26:22.273Z,101648.78
2022-10-19T00:31:25.863Z,101673.03
2022-10-19T00:36:28.023Z,101654.59
2022-10-19T00:41:28.811Z,101652.47
2022-10-19T00:46:31.708Z,101650.41
2022-10-19T00:51:35.314Z,101643.81
2022-10-19T00:56:38.826Z,101625.19
2022-10-19T01:01:37.044Z,101612.22
2022-10-19T01:06:36.301Z,101634.78
2022-10-19T01:11:52.210Z,101613.84
2022-10-19T01:17:09.549Z,101593.38
2022-10-19T01:22:31.548Z,101606.97
2022-10-19T01:27:42.491Z,101614.66
2022-10-19T01:33:22.677Z,101589.91
2022-10-19T01:38:35.604Z,101624.81
2022-10-19T01:43:54.465Z,101581.75
2022-10-19T01:49:02.402Z,101582.69
2022-10-19T01:54:06.671Z,101563.94
2022-10-19T01:59:07.102Z,101576.81
2022-10-19T02:04:07.038Z,101591.31
2022-10-19T02:09:08.110Z,101585.03
2022-10-19T02:14:10.494Z,101587.97
2022-10-19T02:19:13.742Z,101596.13
2022-10-19T02:24:12.962Z,101589.06
2022-10-19T02:29:14.384Z,101588.34
2022-10-19T02:34:13.919Z,101585.38
2022-10-19T02:39:14.121Z,101555.63
2022-10-19T02:44:30.675Z,101579.69
2022-10-19T02:49:30.901Z,101592.00
2022-10-19T02:54:33.562Z,101583.47
2022-10-19T02:59:32.571Z,101579.00
2022-10-19T03:04:37.808Z,101567.88
2022-10-19T03:09:37.188Z,101549.28
2022-10-19T03:14:36.038Z,101555.88
2022-10-19T03:19:35.196Z,101551.84
2022-10-19T03:24:34.815Z,101571.00
2022-10-19T03:29:33.524Z,101534.72
2022-10-19T03:34:43.951Z,101529.59
2022-10-19T03:39:44.713Z,101527.75
2022-10-19T03:44:47.835Z,101512.84
2022-10-19T03:49:46.500Z,101537.66
2022-10-19T03:54:50.365Z,101548.50
2022-10-19T03:59:52.779Z,101526.06
2022-10-19T04:04:53.458Z,101531.00
2022-10-19T04:09:52.695Z,101518.34
2022-10-19T04:14:57.341Z,101494.13
2022-10-19T04:19:58.446Z,101543.88
2022-10-19T04:24:57.873Z,101523.25
2022-10-19T04:29:55.551Z,101502.31
2022-10-19T04:34:53.154Z,101512.63
2022-10-19T04:39:52.122Z,101500.94
2022-10-19T04:44:51.686Z,101500.31
2022-10-19T04:49:53.440Z,101513.59
2022-10-19T04:54:54.103Z,101497.75
2022-10-19T04:59:54.530Z,101502.19
2022-10-19T05:04:56.341Z,101514.06
2022-10-19T05:09:57.465Z,101495.63
2022-10-19T05:15:00.933Z,101490.22
2022-10-19T05:20:04.790Z,101512.66
2022-10-19T05:25:08.103Z,101496.50
2022-10-19T05:30:08.542Z,101476.69
2022-10-19T05:35:07.179Z,101481.56
2022-10-19T05:40:05.855Z,101496.31
2022-10-19T05:45:04.090Z,101521.56
2022-10-19T05:50:09.583Z,101506.22
2022-10-19T05:55:11.362Z,101482.22
2022-10-19T06:00:13.083Z,101489.38
2022-10-19T06:05:13.437Z,101505.81
2022-10-19T06:10:14.732Z,101517.72
2022-10-19T06:15:16.278Z,101484.81
2022-10-19T06:20:16.858Z,101508.53
2022-10-19T06:25:20.621Z,101494.09
2022-10-19T06:30:22.690Z,101501.81
2022-10-19T06:35:23.335Z,101494.19
2022-10-19T06:40:25.319Z,101483.81
2022-10-19T06:45:27.204Z,101504.34
2022-10-19T06:50:26.345Z,101481.81
2022-10-19T06:55:24.302Z,101477.75
2022-10-19T07:00:23.388Z,101457.81
2022-10-19T07:05:21.240Z,101480.81
2022-10-19T07:10:21.785Z,101491.53
2022-10-19T07:15:43.512Z,101477.69
2022-10-19T07:21:05.797Z,101469.59
2022-10-19T07:26:22.457Z,101459.34
2022-10-19T07:37:36.790Z,101452.47
2022-10-19T07:42:38.318Z,101436.78
2022-10-19T07:47:37.100Z,101421.22
2022-10-19T07:53:04.871Z,101443.56
2022-10-19T07:58:05.662Z,101455.63
2022-10-19T08:03:43.666Z,101433.13
2022-10-19T08:08:40.603Z,101449.72
2022-10-19T08:13:53.610Z,101417.38
2022-10-19T08:19:13.869Z,101422.03
2022-10-19T08:24:15.638Z,101431.13
2022-10-19T08:40:59.197Z,101420.19
2022-10-19T08:46:24.327Z,101454.13
2022-10-19T08:51:24.101Z,101461.84
2022-10-19T08:56:52.060Z,101445.91
2022-10-19T09:01:59.425Z,101418.38
2022-10-19T09:07:20.660Z,101439.47
2022-10-19T09:12:53.893Z,101410.78
2022-10-19T09:17:55.593Z,101419.78
2022-10-19T09:23:29.241Z,101401.03
2022-10-19T09:29:20.599Z,101433.34
2022-10-19T09:34:33.797Z,101399.78
2022-10-19T09:39:50.412Z,101401.94
2022-10-19T09:45:02.223Z,101376.41
2022-10-19T09:50:10.110Z,101403.25
2022-10-19T09:55:35.174Z,101403.78
2022-10-19T10:01:11.982Z,101404.69
2022-10-19T10:06:31.985Z,101387.22
2022-10-19T10:17:08.072Z,101357.09
2022-10-19T10:22:40.570Z,101327.31
2022-10-19T10:27:40.572Z,101331.47
2022-10-19T10:32:44.409Z,101323.13
2022-10-19T10:37:52.274Z,101306.25
2022-10-19T10:42:58.198Z,101293.59
2022-10-19T10:47:57.402Z,101289.06
2022-10-19T10:53:35.914Z,101289.63
2022-10-19T10:58:44.473Z,101285.81
2022-10-19T11:03:54.647Z,101253.16
2022-10-19T11:09:52.450Z,101271.13
2022-10-19T11:15:25.244Z,101276.88
2022-10-19T11:20:29.782Z,101249.66
2022-10-19T11:26:17.650Z,101248.22
2022-10-19T11:31:22.543Z,101241.72
2022-10-19T11:36:21.603Z,101269.34
2022-10-19T11:41:27.726Z,101262.25
2022-10-19T11:46:33.355Z,101216.50
2022-10-19T11:51:37.370Z,101247.16
2022-10-19T12:02:20.622Z,101234.88
2022-10-19T12:07:51.007Z,101203.16
2022-10-19T12:13:00.766Z,101202.72
2022-10-19T12:18:09.913Z,101219.38
2022-10-19T12:23:40.221Z,101195.56
2022-10-19T12:29:00.389Z,101175.03
2022-10-19T12:34:37.160Z,101172.53
2022-10-19T12:40:26.313Z,101164.56
2022-10-19T12:46:08.698Z,101144.22
2022-10-19T12:51:14.991Z,101164.69
2022-10-19T12:56:51.366Z,101183.31
2022-10-19T13:02:07.683Z,101143.47
2022-10-19T13:07:18.268Z,101170.84
2022-10-19T13:12:25.785Z,101160.00
2022-10-19T13:23:30.342Z,101160.66
2022-10-19T13:28:37.476Z,101151.81
2022-10-19T13:33:47.649Z,101139.38
2022-10-19T13:39:28.867Z,101137.38
2022-10-19T13:44:31.293Z,101129.53
2022-10-19T13:50:00.976Z,101145.03
2022-10-19T13:55:22.208Z,101146.47
2022-10-19T14:00:46.259Z,101144.84
2022-10-19T14:06:04.278Z,101097.56
2022-10-19T14:11:55.099Z,101118.97
2022-10-19T14:17:29.926Z,101091.59
2022-10-19T14:22:40.023Z,101079.03
2022-10-19T14:27:49.009Z,101103.03
2022-10-19T14:32:48.932Z,101107.16
2022-10-19T14:37:46.968Z,101122.88
2022-10-19T14:42:47.752Z,101102.31
2022-10-19T14:48:00.457Z,101127.56
2022-10-19T14:53:39.125Z,101106.28
2022-10-19T14:58:45.614Z,101088.75
2022-10-19T15:04:00.517Z,101100.00
2022-10-19T15:09:04.897Z,101119.97
2022-10-19T15:14:08.816Z,101102.72
2022-10-19T15:19:26.028Z,101091.78
2022-10-19T15:24:31.112Z,101114.72
2022-10-19T15:35:21.053Z,101095.09
2022-10-19T15:41:16.101Z,101109.44
2022-10-19T15:46:25.539Z,101107.31
2022-10-19T15:51:25.666Z,101117.22
2022-10-19T15:56:27.700Z,101103.47
2022-10-19T16:01:29.910Z,101109.41
2022-10-19T16:06:33.069Z,101123.72
2022-10-19T16:11:35.564Z,101140.72
2022-10-19T16:16:42.051Z,101081.41
2022-10-19T16:21:46.726Z,101131.34
2022-10-19T16:26:57.610Z,101111.09
2022-10-19T16:32:05.609Z,101104.13
2022-10-19T16:37:15.251Z,101122.38
2022-10-19T16:42:18.103Z,101118.22
2022-10-19T16:53:06.056Z,101121.44
2022-10-19T16:58:07.437Z,101131.06
2022-10-19T17:03:13.425Z,101143.91
2022-10-19T17:08:15.630Z,101149.34
2022-10-19T17:13:13.819Z,101178.34
2022-10-19T17:18:11.715Z,101156.94
2022-10-19T17:23:35.474Z,101171.78
2022-10-19T17:34:20.873Z,101194.84
2022-10-19T17:39:28.951Z,101173.03
2022-10-19T17:44:54.836Z,101191.19
2022-10-19T17:50:01.762Z,101200.78
2022-10-19T18:01:13.098Z,101194.19
2022-10-19T18:06:54.409Z,101149.78
2022-10-19T18:12:05.066Z,101194.78
2022-10-19T18:17:44.308Z,101160.81
2022-10-19T18:22:54.105Z,101166.28
2022-10-19T18:28:37.266Z,101198.47
2022-10-19T18:33:41.987Z,101149.97
2022-10-19T18:38:42.632Z,101177.56
2022-10-19T18:44:05.463Z,101162.25
2022-10-19T18:49:15.639Z,101160.75
2022-10-19T18:54:38.495Z,101174.22
2022-10-19T18:59:43.821Z,101191.75
2022-10-19T19:04:56.779Z,101166.06
2022-10-19T19:09:59.374Z,101201.41
2022-10-19T19:14:59.938Z,101198.66
2022-10-19T19:20:05.658Z,101166.75
2022-10-19T19:25:05.979Z,101165.22
2022-10-19T19:30:05.240Z,101163.63
2022-10-19T19:35:03.963Z,101152.50
2022-10-19T19:40:27.615Z,101207.97
2022-10-19T19:45:26.021Z,101176.38
2022-10-19T19:50:30.553Z,101224.84
2022-10-19T19:55:44.053Z,101233.31
2022-10-19T20:00:50.057Z,101253.31
2022-10-19T20:05:51.692Z,101234.16
2022-10-19T20:10:53.880Z,101252.50
2022-10-19T20:15:54.261Z,101255.78
2022-10-19T20:21:00.965Z,101267.53
2022-10-19T20:26:18.832Z,101247.41
2022-10-19T20:31:18.420Z,101244.91
2022-10-19T20:36:26.598Z,101275.72
2022-10-19T20:41:31.274Z,101243.75
2022-10-19T20:46:39.169Z,101272.03
2022-10-19T20:51:42.463Z,101274.50
2022-10-19T20:56:43.992Z,101247.66
2022-10-19T21:01:46.061Z,101268.50
2022-10-19T21:06:46.509Z,101251.13
2022-10-19T21:11:47.516Z,101277.03
2022-10-19T21:16:47.478Z,101285.38
2022-10-19T21:21:50.796Z,101252.13
2022-10-19T21:26:55.263Z,101264.88
2022-10-19T21:31:53.957Z,101224.44
2022-10-19T21:36:54.697Z,101297.84
2022-10-19T21:41:53.807Z,101287.28
2022-10-19T21:46:53.413Z,101278.84
2022-10-19T21:51:56.384Z,101269.81
2022-10-19T21:56:56.742Z,101293.50
2022-10-19T22:01:58.058Z,101290.25
2022-10-19T22:06:59.744Z,101260.81
2022-10-19T22:11:58.804Z,101270.81
2022-10-19T22:17:12.547Z,101310.38
2022-10-19T22:22:11.353Z,101323.91
2022-10-19T22:27:09.885Z,101296.84
2022-10-19T22:32:19.233Z,101278.78
2022-10-19T22:37:20.801Z,101264.19
2022-10-19T22:42:26.942Z,101326.28
2022-10-19T22:47:30.219Z,101347.59
2022-10-19T22:52:29.892Z,101300.00
2022-10-19T22:57:30.714Z,101314.94
2022-10-19T23:02:30.939Z,101335.63
2022-10-19T23:07:33.596Z,101344.13
2022-10-19T23:12:34.211Z,101297.22
2022-10-19T23:17:35.897Z,101368.09
2022-10-19T23:22:33.726Z,101330.09
2022-10-19T23:27:52.120Z,101334.97
2022-10-19T23:33:00.227Z,101309.44
2022-10-19T23:37:59.875Z,101373.41
2022-10-19T23:42:59.259Z,101351.97
2022-10-19T23:47:59.718Z,101344.13
2022-10-19T23:53:02.273Z,101349.38
2022-10-19T23:58:06.017Z,101367.91
